Terminal Aerodrome Forecast
Issued by NWS Tampa Bay Area, FL

Home | Current Version | Previous Version | Text Only | Print | Product List | Glossary On
Versions: 1 2 3 4 5 6 7 8 9 10 11 12 13 14 15
254
FTUS42 KTBW 161740
TAFSRQ
TAF
KSRQ 161740Z 1618/1718 13007KT P6SM SCT040 BKN250
     FM162000 20006KT P6SM SCT040 BKN250
     FM162300 05006KT P6SM SCT250
     FM170600 09006KT P6SM FEW250
     FM171300 10005KT P6SM BKN250=

USA.gov is the U.S. government's official web portal to all federal, state and local government web resources and services.